sensor_id;sensor_type;location;lat;lon;timestamp;P1;durP1;ratioP1;P2;durP2;ratioP2
53525;SDS011;40551;50.478;19.378;2022-08-30T00:01:27;14.90;;;6.40;;
53525;SDS011;40551;50.478;19.378;2022-08-30T00:04:00;14.90;;;5.40;;
53525;SDS011;40551;50.478;19.378;2022-08-30T00:06:35;9.50;;;5.50;;
53525;SDS011;40551;50.478;19.378;2022-08-30T00:09:06;11.30;;;5.10;;
53525;SDS011;40551;50.478;19.378;2022-08-30T00:11:40;12.70;;;5.60;;
53525;SDS011;40551;50.478;19.378;2022-08-30T00:14:12;11.10;;;5.30;;
53525;SDS011;40551;50.478;19.378;2022-08-30T00:19:14;13.30;;;5.40;;
53525;SDS011;40551;50.478;19.378;2022-08-30T00:21:46;10.50;;;5.70;;
53525;SDS011;40551;50.478;19.378;2022-08-30T00:24:17;12.90;;;5.80;;
53525;SDS011;40551;50.478;19.378;2022-08-30T00:26:49;10.30;;;5.30;;
53525;SDS011;40551;50.478;19.378;2022-08-30T00:29:23;12.60;;;5.50;;
53525;SDS011;40551;50.478;19.378;2022-08-30T00:31:56;11.00;;;5.20;;
53525;SDS011;40551;50.478;19.378;2022-08-30T00:36:57;12.40;;;5.80;;
53525;SDS011;40551;50.478;19.378;2022-08-30T00:39:31;12.60;;;5.90;;
53525;SDS011;40551;50.478;19.378;2022-08-30T00:42:02;11.60;;;5.70;;
53525;SDS011;40551;50.478;19.378;2022-08-30T00:44:34;11.50;;;6.20;;
53525;SDS011;40551;50.478;19.378;2022-08-30T00:47:06;16.70;;;6.20;;
53525;SDS011;40551;50.478;19.378;2022-08-30T00:49:39;10.40;;;5.60;;
53525;SDS011;40551;50.478;19.378;2022-08-30T00:52:14;12.70;;;5.20;;
53525;SDS011;40551;50.478;19.378;2022-08-30T00:54:47;15.30;;;5.80;;
53525;SDS011;40551;50.478;19.378;2022-08-30T00:57:21;11.80;;;5.40;;
53525;SDS011;40551;50.478;19.378;2022-08-30T01:02:42;19.80;;;5.80;;
53525;SDS011;40551;50.478;19.378;2022-08-30T01:05:16;10.20;;;5.30;;
53525;SDS011;40551;50.478;19.378;2022-08-30T01:07:49;12.10;;;5.60;;
53525;SDS011;40551;50.478;19.378;2022-08-30T01:12:50;12.40;;;5.90;;
53525;SDS011;40551;50.478;19.378;2022-08-30T01:15:22;11.40;;;6.20;;
53525;SDS011;40551;50.478;19.378;2022-08-30T01:17:55;20.60;;;7.10;;
53525;SDS011;40551;50.478;19.378;2022-08-30T01:20:30;14.60;;;6.40;;
53525;SDS011;40551;50.478;19.378;2022-08-30T01:23:07;10.00;;;5.70;;
53525;SDS011;40551;50.478;19.378;2022-08-30T01:25:42;12.70;;;5.90;;
53525;SDS011;40551;50.478;19.378;2022-08-30T01:28:17;9.40;;;5.40;;
53525;SDS011;40551;50.478;19.378;2022-08-30T01:30:51;10.70;;;5.20;;
53525;SDS011;40551;50.478;19.378;2022-08-30T01:33:23;13.20;;;5.90;;
53525;SDS011;40551;50.478;19.378;2022-08-30T01:38:27;12.70;;;5.40;;
53525;SDS011;40551;50.478;19.378;2022-08-30T01:41:06;18.40;;;5.90;;
53525;SDS011;40551;50.478;19.378;2022-08-30T01:43:40;9.60;;;5.20;;
53525;SDS011;40551;50.478;19.378;2022-08-30T01:46:15;12.20;;;5.80;;
53525;SDS011;40551;50.478;19.378;2022-08-30T01:48:55;17.20;;;5.60;;
53525;SDS011;40551;50.478;19.378;2022-08-30T01:51:28;10.10;;;6.00;;
53525;SDS011;40551;50.478;19.378;2022-08-30T01:54:00;14.10;;;6.00;;
53525;SDS011;40551;50.478;19.378;2022-08-30T01:56:32;10.10;;;5.60;;
53525;SDS011;40551;50.478;19.378;2022-08-30T01:59:06;11.80;;;5.80;;
53525;SDS011;40551;50.478;19.378;2022-08-30T02:01:37;11.60;;;5.70;;
53525;SDS011;40551;50.478;19.378;2022-08-30T02:04:10;10.30;;;5.20;;
53525;SDS011;40551;50.478;19.378;2022-08-30T02:06:43;14.50;;;5.50;;
53525;SDS011;40551;50.478;19.378;2022-08-30T02:09:15;11.90;;;5.70;;
53525;SDS011;40551;50.478;19.378;2022-08-30T02:11:47;12.50;;;5.30;;
53525;SDS011;40551;50.478;19.378;2022-08-30T02:14:19;9.90;;;5.70;;
53525;SDS011;40551;50.478;19.378;2022-08-30T02:19:20;13.90;;;6.30;;
53525;SDS011;40551;50.478;19.378;2022-08-30T02:21:52;14.60;;;6.10;;
53525;SDS011;40551;50.478;19.378;2022-08-30T02:24:26;13.20;;;5.30;;
53525;SDS011;40551;50.478;19.378;2022-08-30T02:26:58;12.00;;;5.60;;
53525;SDS011;40551;50.478;19.378;2022-08-30T02:29:33;17.30;;;6.00;;
53525;SDS011;40551;50.478;19.378;2022-08-30T02:32:04;12.60;;;5.30;;
53525;SDS011;40551;50.478;19.378;2022-08-30T02:34:39;12.50;;;5.40;;
53525;SDS011;40551;50.478;19.378;2022-08-30T02:39:40;11.40;;;5.60;;
53525;SDS011;40551;50.478;19.378;2022-08-30T02:42:12;11.70;;;5.30;;
53525;SDS011;40551;50.478;19.378;2022-08-30T02:44:45;12.60;;;5.50;;
53525;SDS011;40551;50.478;19.378;2022-08-30T02:49:46;13.40;;;5.50;;
53525;SDS011;40551;50.478;19.378;2022-08-30T02:54:55;11.30;;;5.60;;
53525;SDS011;40551;50.478;19.378;2022-08-30T02:57:27;11.30;;;4.70;;
53525;SDS011;40551;50.478;19.378;2022-08-30T02:59:59;9.80;;;4.60;;
53525;SDS011;40551;50.478;19.378;2022-08-30T03:02:31;10.30;;;5.50;;
53525;SDS011;40551;50.478;19.378;2022-08-30T03:05:06;14.40;;;6.00;;
53525;SDS011;40551;50.478;19.378;2022-08-30T03:07:43;8.50;;;4.90;;
53525;SDS011;40551;50.478;19.378;2022-08-30T03:10:15;13.00;;;5.20;;
53525;SDS011;40551;50.478;19.378;2022-08-30T03:12:48;10.00;;;5.70;;
53525;SDS011;40551;50.478;19.378;2022-08-30T03:15:27;11.60;;;5.30;;
53525;SDS011;40551;50.478;19.378;2022-08-30T03:20:28;10.00;;;4.70;;
53525;SDS011;40551;50.478;19.378;2022-08-30T03:25:30;12.10;;;5.20;;
53525;SDS011;40551;50.478;19.378;2022-08-30T03:28:02;12.80;;;5.40;;
53525;SDS011;40551;50.478;19.378;2022-08-30T03:30:34;12.10;;;5.60;;
53525;SDS011;40551;50.478;19.378;2022-08-30T03:33:06;10.30;;;5.30;;
53525;SDS011;40551;50.478;19.378;2022-08-30T03:35:39;9.60;;;5.70;;
53525;SDS011;40551;50.478;19.378;2022-08-30T03:38:10;11.40;;;5.20;;
53525;SDS011;40551;50.478;19.378;2022-08-30T03:40:42;13.30;;;5.40;;
53525;SDS011;40551;50.478;19.378;2022-08-30T03:43:14;8.70;;;4.90;;
53525;SDS011;40551;50.478;19.378;2022-08-30T03:45:46;8.10;;;4.90;;
53525;SDS011;40551;50.478;19.378;2022-08-30T03:48:20;8.30;;;5.30;;
53525;SDS011;40551;50.478;19.378;2022-08-30T03:50:51;9.90;;;5.20;;
53525;SDS011;40551;50.478;19.378;2022-08-30T03:53:23;11.70;;;5.00;;
53525;SDS011;40551;50.478;19.378;2022-08-30T03:58:26;9.70;;;5.00;;
53525;SDS011;40551;50.478;19.378;2022-08-30T04:03:28;13.10;;;4.80;;
53525;SDS011;40551;50.478;19.378;2022-08-30T04:06:00;13.60;;;5.00;;
53525;SDS011;40551;50.478;19.378;2022-08-30T04:08:33;12.10;;;5.40;;
53525;SDS011;40551;50.478;19.378;2022-08-30T04:13:35;9.80;;;5.00;;
53525;SDS011;40551;50.478;19.378;2022-08-30T04:18:37;8.60;;;4.40;;
53525;SDS011;40551;50.478;19.378;2022-08-30T04:23:42;9.90;;;4.90;;
53525;SDS011;40551;50.478;19.378;2022-08-30T04:26:14;9.90;;;4.40;;
53525;SDS011;40551;50.478;19.378;2022-08-30T04:28:46;12.80;;;4.90;;
53525;SDS011;40551;50.478;19.378;2022-08-30T04:31:19;11.30;;;4.70;;
53525;SDS011;40551;50.478;19.378;2022-08-30T04:33:51;11.90;;;4.40;;
53525;SDS011;40551;50.478;19.378;2022-08-30T04:36:28;15.00;;;5.40;;
53525;SDS011;40551;50.478;19.378;2022-08-30T04:38:59;8.80;;;4.20;;
53525;SDS011;40551;50.478;19.378;2022-08-30T04:41:31;13.60;;;4.70;;
53525;SDS011;40551;50.478;19.378;2022-08-30T04:44:04;7.20;;;3.90;;
53525;SDS011;40551;50.478;19.378;2022-08-30T04:46:41;8.80;;;4.80;;
53525;SDS011;40551;50.478;19.378;2022-08-30T04:49:13;11.30;;;4.40;;
53525;SDS011;40551;50.478;19.378;2022-08-30T04:51:45;8.70;;;3.90;;
53525;SDS011;40551;50.478;19.378;2022-08-30T04:54:17;9.80;;;5.30;;
53525;SDS011;40551;50.478;19.378;2022-08-30T04:56:48;11.40;;;4.90;;
53525;SDS011;40551;50.478;19.378;2022-08-30T04:59:20;11.40;;;4.80;;
53525;SDS011;40551;50.478;19.378;2022-08-30T05:01:51;9.60;;;5.00;;
53525;SDS011;40551;50.478;19.378;2022-08-30T05:04:23;11.40;;;5.40;;
53525;SDS011;40551;50.478;19.378;2022-08-30T05:06:55;11.10;;;6.10;;
53525;SDS011;40551;50.478;19.378;2022-08-30T05:09:27;9.60;;;4.90;;
53525;SDS011;40551;50.478;19.378;2022-08-30T05:11:59;10.40;;;4.80;;
53525;SDS011;40551;50.478;19.378;2022-08-30T05:14:33;10.20;;;4.40;;
53525;SDS011;40551;50.478;19.378;2022-08-30T05:17:05;9.40;;;4.90;;
53525;SDS011;40551;50.478;19.378;2022-08-30T05:19:36;9.90;;;5.00;;
53525;SDS011;40551;50.478;19.378;2022-08-30T05:22:08;12.30;;;5.00;;
53525;SDS011;40551;50.478;19.378;2022-08-30T05:24:40;9.00;;;4.80;;
53525;SDS011;40551;50.478;19.378;2022-08-30T05:27:12;10.20;;;4.40;;
53525;SDS011;40551;50.478;19.378;2022-08-30T05:29:43;11.10;;;4.90;;
53525;SDS011;40551;50.478;19.378;2022-08-30T05:32:15;9.80;;;4.30;;
53525;SDS011;40551;50.478;19.378;2022-08-30T05:34:48;9.00;;;4.40;;
53525;SDS011;40551;50.478;19.378;2022-08-30T05:37:20;11.70;;;4.50;;
53525;SDS011;40551;50.478;19.378;2022-08-30T05:39:51;7.40;;;4.00;;
53525;SDS011;40551;50.478;19.378;2022-08-30T05:42:24;7.30;;;4.00;;
53525;SDS011;40551;50.478;19.378;2022-08-30T05:44:56;11.40;;;3.70;;
53525;SDS011;40551;50.478;19.378;2022-08-30T05:47:28;12.10;;;4.10;;
53525;SDS011;40551;50.478;19.378;2022-08-30T05:50:00;7.90;;;3.70;;
53525;SDS011;40551;50.478;19.378;2022-08-30T05:52:32;10.20;;;4.30;;
53525;SDS011;40551;50.478;19.378;2022-08-30T05:55:07;8.30;;;3.90;;
53525;SDS011;40551;50.478;19.378;2022-08-30T05:57:40;7.80;;;4.10;;
53525;SDS011;40551;50.478;19.378;2022-08-30T06:00:15;11.00;;;4.50;;
53525;SDS011;40551;50.478;19.378;2022-08-30T06:02:51;11.60;;;4.50;;
53525;SDS011;40551;50.478;19.378;2022-08-30T06:05:23;8.80;;;4.00;;
53525;SDS011;40551;50.478;19.378;2022-08-30T06:07:55;11.60;;;4.90;;
53525;SDS011;40551;50.478;19.378;2022-08-30T06:10:27;10.70;;;5.00;;
53525;SDS011;40551;50.478;19.378;2022-08-30T06:13:00;10.90;;;4.80;;
53525;SDS011;40551;50.478;19.378;2022-08-30T06:15:31;9.50;;;4.80;;
53525;SDS011;40551;50.478;19.378;2022-08-30T06:18:06;9.90;;;4.80;;
53525;SDS011;40551;50.478;19.378;2022-08-30T06:20:39;9.80;;;4.70;;
53525;SDS011;40551;50.478;19.378;2022-08-30T06:23:12;9.00;;;4.50;;
53525;SDS011;40551;50.478;19.378;2022-08-30T06:25:45;10.00;;;4.80;;
53525;SDS011;40551;50.478;19.378;2022-08-30T06:28:17;8.80;;;4.50;;
53525;SDS011;40551;50.478;19.378;2022-08-30T06:30:50;10.10;;;5.50;;
53525;SDS011;40551;50.478;19.378;2022-08-30T06:33:22;12.10;;;4.60;;
53525;SDS011;40551;50.478;19.378;2022-08-30T06:35:53;10.20;;;4.80;;
53525;SDS011;40551;50.478;19.378;2022-08-30T06:38:34;7.90;;;4.10;;
53525;SDS011;40551;50.478;19.378;2022-08-30T06:41:06;10.10;;;4.90;;
53525;SDS011;40551;50.478;19.378;2022-08-30T06:43:41;10.30;;;4.50;;
53525;SDS011;40551;50.478;19.378;2022-08-30T06:46:18;11.40;;;5.10;;
53525;SDS011;40551;50.478;19.378;2022-08-30T06:48:52;9.70;;;5.00;;
53525;SDS011;40551;50.478;19.378;2022-08-30T06:51:26;13.30;;;6.20;;
53525;SDS011;40551;50.478;19.378;2022-08-30T06:54:04;12.00;;;5.60;;
53525;SDS011;40551;50.478;19.378;2022-08-30T06:56:39;10.40;;;5.50;;
53525;SDS011;40551;50.478;19.378;2022-08-30T06:59:26;11.70;;;6.10;;
53525;SDS011;40551;50.478;19.378;2022-08-30T07:02:01;11.40;;;5.90;;
53525;SDS011;40551;50.478;19.378;2022-08-30T07:04:34;10.70;;;6.10;;
53525;SDS011;40551;50.478;19.378;2022-08-30T07:07:06;11.20;;;6.00;;
53525;SDS011;40551;50.478;19.378;2022-08-30T07:09:40;12.20;;;6.70;;
53525;SDS011;40551;50.478;19.378;2022-08-30T07:12:12;11.20;;;6.00;;
53525;SDS011;40551;50.478;19.378;2022-08-30T07:14:45;11.20;;;6.50;;
53525;SDS011;40551;50.478;19.378;2022-08-30T07:17:18;9.90;;;6.40;;
53525;SDS011;40551;50.478;19.378;2022-08-30T07:20:19;13.90;;;6.50;;
53525;SDS011;40551;50.478;19.378;2022-08-30T07:22:51;11.90;;;6.70;;
53525;SDS011;40551;50.478;19.378;2022-08-30T07:25:28;12.00;;;6.20;;
53525;SDS011;40551;50.478;19.378;2022-08-30T07:28:11;11.30;;;6.20;;
53525;SDS011;40551;50.478;19.378;2022-08-30T07:30:43;15.50;;;7.20;;
53525;SDS011;40551;50.478;19.378;2022-08-30T07:33:15;11.10;;;6.40;;
53525;SDS011;40551;50.478;19.378;2022-08-30T07:35:47;12.60;;;5.90;;
53525;SDS011;40551;50.478;19.378;2022-08-30T07:38:19;11.00;;;5.90;;
53525;SDS011;40551;50.478;19.378;2022-08-30T07:40:50;12.00;;;6.60;;
53525;SDS011;40551;50.478;19.378;2022-08-30T07:43:22;11.60;;;6.40;;
53525;SDS011;40551;50.478;19.378;2022-08-30T07:45:53;9.80;;;5.90;;
53525;SDS011;40551;50.478;19.378;2022-08-30T07:48:29;19.80;;;7.20;;
53525;SDS011;40551;50.478;19.378;2022-08-30T07:51:01;13.30;;;6.70;;
53525;SDS011;40551;50.478;19.378;2022-08-30T07:53:37;10.30;;;6.80;;
53525;SDS011;40551;50.478;19.378;2022-08-30T07:56:09;10.50;;;6.30;;
53525;SDS011;40551;50.478;19.378;2022-08-30T07:58:41;12.60;;;7.30;;
53525;SDS011;40551;50.478;19.378;2022-08-30T08:01:15;12.10;;;6.70;;
53525;SDS011;40551;50.478;19.378;2022-08-30T08:03:49;10.90;;;6.20;;
53525;SDS011;40551;50.478;19.378;2022-08-30T08:06:21;12.70;;;6.60;;
53525;SDS011;40551;50.478;19.378;2022-08-30T08:09:00;11.90;;;6.70;;
53525;SDS011;40551;50.478;19.378;2022-08-30T08:11:33;11.50;;;6.20;;
53525;SDS011;40551;50.478;19.378;2022-08-30T08:14:05;9.30;;;5.90;;
53525;SDS011;40551;50.478;19.378;2022-08-30T08:16:37;10.90;;;5.50;;
53525;SDS011;40551;50.478;19.378;2022-08-30T08:19:12;11.10;;;7.00;;
53525;SDS011;40551;50.478;19.378;2022-08-30T08:21:45;12.50;;;5.60;;
53525;SDS011;40551;50.478;19.378;2022-08-30T08:24:33;11.60;;;6.60;;
53525;SDS011;40551;50.478;19.378;2022-08-30T08:27:05;10.30;;;7.00;;
53525;SDS011;40551;50.478;19.378;2022-08-30T08:29:36;9.00;;;6.40;;
53525;SDS011;40551;50.478;19.378;2022-08-30T08:32:08;10.90;;;6.30;;
53525;SDS011;40551;50.478;19.378;2022-08-30T08:34:39;15.90;;;6.60;;
53525;SDS011;40551;50.478;19.378;2022-08-30T08:37:11;10.10;;;6.20;;
53525;SDS011;40551;50.478;19.378;2022-08-30T08:39:48;11.30;;;6.70;;
53525;SDS011;40551;50.478;19.378;2022-08-30T08:42:21;8.90;;;5.90;;
53525;SDS011;40551;50.478;19.378;2022-08-30T08:45:06;11.90;;;6.40;;
53525;SDS011;40551;50.478;19.378;2022-08-30T08:47:46;11.70;;;6.90;;
53525;SDS011;40551;50.478;19.378;2022-08-30T08:50:46;8.80;;;5.60;;
53525;SDS011;40551;50.478;19.378;2022-08-30T08:53:33;9.80;;;6.50;;
53525;SDS011;40551;50.478;19.378;2022-08-30T08:56:15;10.80;;;6.20;;
53525;SDS011;40551;50.478;19.378;2022-08-30T08:58:52;10.70;;;6.10;;
53525;SDS011;40551;50.478;19.378;2022-08-30T09:01:26;9.10;;;5.90;;
53525;SDS011;40551;50.478;19.378;2022-08-30T09:04:00;10.20;;;5.60;;
53525;SDS011;40551;50.478;19.378;2022-08-30T09:06:46;9.60;;;5.70;;
53525;SDS011;40551;50.478;19.378;2022-08-30T09:09:23;8.90;;;5.10;;
53525;SDS011;40551;50.478;19.378;2022-08-30T09:11:58;8.90;;;4.80;;
53525;SDS011;40551;50.478;19.378;2022-08-30T09:14:32;8.30;;;5.40;;
53525;SDS011;40551;50.478;19.378;2022-08-30T09:17:18;11.50;;;5.60;;
53525;SDS011;40551;50.478;19.378;2022-08-30T09:19:57;7.00;;;4.50;;
53525;SDS011;40551;50.478;19.378;2022-08-30T09:22:34;11.10;;;4.70;;
53525;SDS011;40551;50.478;19.378;2022-08-30T09:25:08;7.40;;;4.20;;
53525;SDS011;40551;50.478;19.378;2022-08-30T09:27:51;8.70;;;4.20;;
53525;SDS011;40551;50.478;19.378;2022-08-30T09:30:38;7.40;;;4.20;;
53525;SDS011;40551;50.478;19.378;2022-08-30T09:33:26;10.10;;;4.30;;
53525;SDS011;40551;50.478;19.378;2022-08-30T09:35:58;7.80;;;4.10;;
53525;SDS011;40551;50.478;19.378;2022-08-30T09:38:42;8.90;;;4.40;;
53525;SDS011;40551;50.478;19.378;2022-08-30T09:41:27;7.60;;;3.70;;
53525;SDS011;40551;50.478;19.378;2022-08-30T09:44:07;7.40;;;3.80;;
53525;SDS011;40551;50.478;19.378;2022-08-30T09:46:47;10.30;;;3.60;;
53525;SDS011;40551;50.478;19.378;2022-08-30T09:49:30;6.90;;;3.60;;
53525;SDS011;40551;50.478;19.378;2022-08-30T09:52:11;8.10;;;3.50;;
53525;SDS011;40551;50.478;19.378;2022-08-30T09:54:52;9.00;;;3.90;;
53525;SDS011;40551;50.478;19.378;2022-08-30T09:57:38;9.50;;;4.00;;
53525;SDS011;40551;50.478;19.378;2022-08-30T10:00:22;7.90;;;3.70;;
53525;SDS011;40551;50.478;19.378;2022-08-30T10:02:58;6.30;;;3.50;;
53525;SDS011;40551;50.478;19.378;2022-08-30T10:06:09;8.40;;;4.00;;
53525;SDS011;40551;50.478;19.378;2022-08-30T10:09:00;8.00;;;3.90;;
53525;SDS011;40551;50.478;19.378;2022-08-30T10:11:42;7.30;;;3.90;;
53525;SDS011;40551;50.478;19.378;2022-08-30T10:17:24;6.80;;;3.90;;
53525;SDS011;40551;50.478;19.378;2022-08-30T10:20:13;7.20;;;3.70;;
53525;SDS011;40551;50.478;19.378;2022-08-30T10:22:54;7.10;;;3.90;;
53525;SDS011;40551;50.478;19.378;2022-08-30T10:25:29;10.90;;;3.80;;
53525;SDS011;40551;50.478;19.378;2022-08-30T10:28:06;9.40;;;4.10;;
53525;SDS011;40551;50.478;19.378;2022-08-30T10:30:43;6.40;;;3.10;;
53525;SDS011;40551;50.478;19.378;2022-08-30T10:33:20;5.80;;;3.10;;
53525;SDS011;40551;50.478;19.378;2022-08-30T10:36:00;9.40;;;3.20;;
53525;SDS011;40551;50.478;19.378;2022-08-30T10:38:54;9.40;;;3.30;;
53525;SDS011;40551;50.478;19.378;2022-08-30T10:41:32;6.00;;;3.00;;
53525;SDS011;40551;50.478;19.378;2022-08-30T10:44:10;6.70;;;3.10;;
53525;SDS011;40551;50.478;19.378;2022-08-30T10:46:52;5.80;;;2.50;;
53525;SDS011;40551;50.478;19.378;2022-08-30T10:49:33;5.80;;;2.70;;
53525;SDS011;40551;50.478;19.378;2022-08-30T10:52:21;6.20;;;2.70;;
53525;SDS011;40551;50.478;19.378;2022-08-30T10:54:58;5.50;;;2.70;;
53525;SDS011;40551;50.478;19.378;2022-08-30T10:57:34;5.80;;;2.70;;
53525;SDS011;40551;50.478;19.378;2022-08-30T11:00:12;5.30;;;2.50;;
53525;SDS011;40551;50.478;19.378;2022-08-30T11:11:36;6.50;;;2.80;;
53525;SDS011;40551;50.478;19.378;2022-08-30T11:14:21;7.20;;;2.70;;
53525;SDS011;40551;50.478;19.378;2022-08-30T11:16:54;5.50;;;2.60;;
53525;SDS011;40551;50.478;19.378;2022-08-30T11:19:34;7.90;;;2.60;;
53525;SDS011;40551;50.478;19.378;2022-08-30T11:22:12;6.80;;;2.70;;
53525;SDS011;40551;50.478;19.378;2022-08-30T11:25:03;7.70;;;3.30;;
53525;SDS011;40551;50.478;19.378;2022-08-30T11:27:40;5.20;;;2.70;;
53525;SDS011;40551;50.478;19.378;2022-08-30T11:39:50;6.80;;;3.20;;
53525;SDS011;40551;50.478;19.378;2022-08-30T11:42:34;7.50;;;3.50;;
53525;SDS011;40551;50.478;19.378;2022-08-30T11:57:37;5.70;;;2.50;;
53525;SDS011;40551;50.478;19.378;2022-08-30T12:00:28;6.70;;;2.30;;
53525;SDS011;40551;50.478;19.378;2022-08-30T12:03:03;6.80;;;2.60;;
53525;SDS011;40551;50.478;19.378;2022-08-30T12:05:58;5.30;;;2.10;;
53525;SDS011;40551;50.478;19.378;2022-08-30T12:14:43;7.80;;;2.50;;
53525;SDS011;40551;50.478;19.378;2022-08-30T12:20:44;7.20;;;2.30;;
53525;SDS011;40551;50.478;19.378;2022-08-30T12:23:30;6.00;;;2.10;;
53525;SDS011;40551;50.478;19.378;2022-08-30T12:26:15;6.00;;;2.70;;
53525;SDS011;40551;50.478;19.378;2022-08-30T12:29:14;6.00;;;2.30;;
53525;SDS011;40551;50.478;19.378;2022-08-30T12:31:50;3.40;;;1.70;;
53525;SDS011;40551;50.478;19.378;2022-08-30T12:34:27;4.80;;;2.20;;
53525;SDS011;40551;50.478;19.378;2022-08-30T12:37:02;4.90;;;2.10;;
53525;SDS011;40551;50.478;19.378;2022-08-30T12:39:37;6.20;;;2.30;;
53525;SDS011;40551;50.478;19.378;2022-08-30T12:42:11;6.80;;;2.40;;
53525;SDS011;40551;50.478;19.378;2022-08-30T12:44:47;4.50;;;2.20;;
53525;SDS011;40551;50.478;19.378;2022-08-30T12:47:21;7.60;;;3.10;;
53525;SDS011;40551;50.478;19.378;2022-08-30T12:49:55;4.40;;;2.10;;
53525;SDS011;40551;50.478;19.378;2022-08-30T12:52:29;6.50;;;3.10;;
53525;SDS011;40551;50.478;19.378;2022-08-30T12:55:12;5.50;;;2.90;;
53525;SDS011;40551;50.478;19.378;2022-08-30T12:57:56;6.00;;;2.80;;
53525;SDS011;40551;50.478;19.378;2022-08-30T13:00:31;6.40;;;2.60;;
53525;SDS011;40551;50.478;19.378;2022-08-30T13:03:04;7.80;;;3.10;;
53525;SDS011;40551;50.478;19.378;2022-08-30T13:05:52;8.50;;;3.50;;
53525;SDS011;40551;50.478;19.378;2022-08-30T13:08:27;8.40;;;3.10;;
53525;SDS011;40551;50.478;19.378;2022-08-30T13:11:03;6.00;;;3.40;;
53525;SDS011;40551;50.478;19.378;2022-08-30T13:13:43;6.40;;;3.10;;
53525;SDS011;40551;50.478;19.378;2022-08-30T13:16:22;6.40;;;3.50;;
53525;SDS011;40551;50.478;19.378;2022-08-30T13:21:56;5.70;;;3.00;;
53525;SDS011;40551;50.478;19.378;2022-08-30T13:24:29;7.80;;;3.00;;
53525;SDS011;40551;50.478;19.378;2022-08-30T13:27:03;5.80;;;2.80;;
53525;SDS011;40551;50.478;19.378;2022-08-30T14:11:19;9.00;;;3.40;;
53525;SDS011;40551;50.478;19.378;2022-08-30T14:24:42;6.40;;;2.70;;
53525;SDS011;40551;50.478;19.378;2022-08-30T14:27:36;7.40;;;3.00;;
53525;SDS011;40551;50.478;19.378;2022-08-30T14:30:30;7.30;;;3.10;;
53525;SDS011;40551;50.478;19.378;2022-08-30T14:33:10;7.10;;;3.00;;
53525;SDS011;40551;50.478;19.378;2022-08-30T14:35:59;6.50;;;2.80;;
53525;SDS011;40551;50.478;19.378;2022-08-30T14:38:50;11.40;;;3.10;;
53525;SDS011;40551;50.478;19.378;2022-08-30T14:41:27;7.00;;;3.30;;
53525;SDS011;40551;50.478;19.378;2022-08-30T14:44:00;6.50;;;2.90;;
53525;SDS011;40551;50.478;19.378;2022-08-30T14:46:32;6.70;;;3.10;;
53525;SDS011;40551;50.478;19.378;2022-08-30T14:49:04;6.30;;;2.90;;
53525;SDS011;40551;50.478;19.378;2022-08-30T14:51:39;6.70;;;2.90;;
53525;SDS011;40551;50.478;19.378;2022-08-30T14:54:14;5.00;;;2.60;;
53525;SDS011;40551;50.478;19.378;2022-08-30T14:56:47;6.70;;;2.90;;
53525;SDS011;40551;50.478;19.378;2022-08-30T14:59:19;5.80;;;2.50;;
53525;SDS011;40551;50.478;19.378;2022-08-30T15:01:51;5.00;;;2.60;;
53525;SDS011;40551;50.478;19.378;2022-08-30T15:04:23;5.90;;;2.80;;
53525;SDS011;40551;50.478;19.378;2022-08-30T15:06:56;7.00;;;2.80;;
53525;SDS011;40551;50.478;19.378;2022-08-30T15:09:29;6.40;;;2.70;;
53525;SDS011;40551;50.478;19.378;2022-08-30T15:12:04;6.30;;;3.00;;
53525;SDS011;40551;50.478;19.378;2022-08-30T15:14:36;5.80;;;2.70;;
53525;SDS011;40551;50.478;19.378;2022-08-30T15:17:08;6.30;;;2.80;;
53525;SDS011;40551;50.478;19.378;2022-08-30T15:19:40;6.80;;;2.90;;
53525;SDS011;40551;50.478;19.378;2022-08-30T15:22:12;6.80;;;3.00;;
53525;SDS011;40551;50.478;19.378;2022-08-30T15:24:44;6.00;;;2.80;;
53525;SDS011;40551;50.478;19.378;2022-08-30T15:27:19;7.30;;;2.70;;
53525;SDS011;40551;50.478;19.378;2022-08-30T15:29:56;7.10;;;2.70;;
53525;SDS011;40551;50.478;19.378;2022-08-30T15:32:28;8.60;;;3.10;;
53525;SDS011;40551;50.478;19.378;2022-08-30T15:35:04;7.50;;;2.90;;
53525;SDS011;40551;50.478;19.378;2022-08-30T15:37:37;7.00;;;3.10;;
53525;SDS011;40551;50.478;19.378;2022-08-30T15:40:10;5.60;;;3.10;;
53525;SDS011;40551;50.478;19.378;2022-08-30T15:42:42;7.10;;;3.00;;
53525;SDS011;40551;50.478;19.378;2022-08-30T15:45:15;6.50;;;3.30;;
53525;SDS011;40551;50.478;19.378;2022-08-30T15:47:47;6.40;;;3.30;;
53525;SDS011;40551;50.478;19.378;2022-08-30T15:50:19;6.20;;;3.00;;
53525;SDS011;40551;50.478;19.378;2022-08-30T15:52:50;6.00;;;3.00;;
53525;SDS011;40551;50.478;19.378;2022-08-30T15:55:23;6.80;;;3.20;;
53525;SDS011;40551;50.478;19.378;2022-08-30T15:57:55;7.40;;;3.80;;
53525;SDS011;40551;50.478;19.378;2022-08-30T16:00:26;9.30;;;3.90;;
53525;SDS011;40551;50.478;19.378;2022-08-30T16:02:59;7.50;;;3.40;;
53525;SDS011;40551;50.478;19.378;2022-08-30T16:05:31;8.10;;;3.40;;
53525;SDS011;40551;50.478;19.378;2022-08-30T16:08:03;12.50;;;3.60;;
53525;SDS011;40551;50.478;19.378;2022-08-30T16:10:35;5.80;;;3.30;;
53525;SDS011;40551;50.478;19.378;2022-08-30T16:13:11;7.70;;;4.00;;
53525;SDS011;40551;50.478;19.378;2022-08-30T16:15:45;7.10;;;3.90;;
53525;SDS011;40551;50.478;19.378;2022-08-30T16:18:16;6.90;;;4.00;;
53525;SDS011;40551;50.478;19.378;2022-08-30T16:20:48;7.40;;;3.80;;
53525;SDS011;40551;50.478;19.378;2022-08-30T16:23:30;6.60;;;3.40;;
53525;SDS011;40551;50.478;19.378;2022-08-30T16:26:05;6.00;;;3.20;;
53525;SDS011;40551;50.478;19.378;2022-08-30T16:28:44;7.80;;;3.90;;
53525;SDS011;40551;50.478;19.378;2022-08-30T16:31:29;7.60;;;3.60;;
53525;SDS011;40551;50.478;19.378;2022-08-30T16:34:16;7.10;;;4.10;;
53525;SDS011;40551;50.478;19.378;2022-08-30T16:36:48;9.10;;;3.80;;
53525;SDS011;40551;50.478;19.378;2022-08-30T16:39:21;10.50;;;4.40;;
53525;SDS011;40551;50.478;19.378;2022-08-30T16:41:52;8.20;;;4.60;;
53525;SDS011;40551;50.478;19.378;2022-08-30T16:44:24;9.10;;;5.00;;
53525;SDS011;40551;50.478;19.378;2022-08-30T16:46:57;7.80;;;4.40;;
53525;SDS011;40551;50.478;19.378;2022-08-30T16:49:29;7.80;;;4.30;;
53525;SDS011;40551;50.478;19.378;2022-08-30T16:52:01;9.30;;;5.10;;
53525;SDS011;40551;50.478;19.378;2022-08-30T16:54:33;9.10;;;6.50;;
53525;SDS011;40551;50.478;19.378;2022-08-30T16:57:05;8.10;;;6.00;;
53525;SDS011;40551;50.478;19.378;2022-08-30T16:59:37;7.80;;;4.80;;
53525;SDS011;40551;50.478;19.378;2022-08-30T17:02:08;6.50;;;4.50;;
53525;SDS011;40551;50.478;19.378;2022-08-30T17:04:40;8.00;;;4.10;;
53525;SDS011;40551;50.478;19.378;2022-08-30T17:07:12;9.00;;;4.20;;
53525;SDS011;40551;50.478;19.378;2022-08-30T17:09:50;8.30;;;3.60;;
53525;SDS011;40551;50.478;19.378;2022-08-30T17:12:22;8.00;;;3.60;;
53525;SDS011;40551;50.478;19.378;2022-08-30T17:14:59;11.10;;;3.60;;
53525;SDS011;40551;50.478;19.378;2022-08-30T17:17:33;7.60;;;3.60;;
53525;SDS011;40551;50.478;19.378;2022-08-30T17:20:11;8.90;;;3.60;;
53525;SDS011;40551;50.478;19.378;2022-08-30T17:22:43;7.80;;;3.50;;
53525;SDS011;40551;50.478;19.378;2022-08-30T17:25:16;8.00;;;3.90;;
53525;SDS011;40551;50.478;19.378;2022-08-30T17:27:50;10.20;;;4.50;;
53525;SDS011;40551;50.478;19.378;2022-08-30T17:30:22;7.40;;;3.50;;
53525;SDS011;40551;50.478;19.378;2022-08-30T17:32:53;8.50;;;4.10;;
53525;SDS011;40551;50.478;19.378;2022-08-30T17:35:25;9.00;;;4.30;;